sensor_id;sensor_type;location;lat;lon;timestamp;temperature;humidity
73121;DHT22;61307;49.628;-1.624;2023-09-07T00:00:37;22.90;73.50
73121;DHT22;61307;49.628;-1.624;2023-09-07T00:03:04;22.90;73.50
73121;DHT22;61307;49.628;-1.624;2023-09-07T00:05:32;23.00;73.60
73121;DHT22;61307;49.628;-1.624;2023-09-07T00:08:01;23.00;73.60
73121;DHT22;61307;49.628;-1.624;2023-09-07T00:10:29;23.00;73.60
73121;DHT22;61307;49.628;-1.624;2023-09-07T00:12:57;22.90;73.50
73121;DHT22;61307;49.628;-1.624;2023-09-07T00:15:24;22.90;74.40
73121;DHT22;61307;49.628;-1.624;2023-09-07T00:17:52;22.90;73.50
73121;DHT22;61307;49.628;-1.624;2023-09-07T00:20:20;22.90;73.50
73121;DHT22;61307;49.628;-1.624;2023-09-07T00:22:49;22.90;73.50
73121;DHT22;61307;49.628;-1.624;2023-09-07T00:25:21;22.90;73.50
73121;DHT22;61307;49.628;-1.624;2023-09-07T00:27:49;22.90;73.50
73121;DHT22;61307;49.628;-1.624;2023-09-07T00:30:17;22.90;73.50
73121;DHT22;61307;49.628;-1.624;2023-09-07T00:32:44;22.90;73.60
73121;DHT22;61307;49.628;-1.624;2023-09-07T00:35:12;22.90;73.50
73121;DHT22;61307;49.628;-1.624;2023-09-07T00:37:40;23.00;73.70
73121;DHT22;61307;49.628;-1.624;2023-09-07T00:40:08;22.90;73.60
73121;DHT22;61307;49.628;-1.624;2023-09-07T00:42:37;22.90;73.60
73121;DHT22;61307;49.628;-1.624;2023-09-07T00:45:26;22.90;73.60
73121;DHT22;61307;49.628;-1.624;2023-09-07T00:47:53;22.90;73.70
73121;DHT22;61307;49.628;-1.624;2023-09-07T00:50:22;22.90;73.60
73121;DHT22;61307;49.628;-1.624;2023-09-07T00:52:49;22.90;73.60
73121;DHT22;61307;49.628;-1.624;2023-09-07T00:55:17;22.90;73.60
73121;DHT22;61307;49.628;-1.624;2023-09-07T00:57:46;22.80;73.50
73121;DHT22;61307;49.628;-1.624;2023-09-07T01:00:14;22.80;73.50
73121;DHT22;61307;49.628;-1.624;2023-09-07T01:02:42;22.90;73.60
73121;DHT22;61307;49.628;-1.624;2023-09-07T01:05:11;22.90;73.60
73121;DHT22;61307;49.628;-1.624;2023-09-07T01:07:44;22.90;73.60
73121;DHT22;61307;49.628;-1.624;2023-09-07T01:10:13;22.80;73.50
73121;DHT22;61307;49.628;-1.624;2023-09-07T01:18:24;22.80;73.60
73121;DHT22;61307;49.628;-1.624;2023-09-07T01:20:52;22.80;73.50
73121;DHT22;61307;49.628;-1.624;2023-09-07T01:23:23;22.80;73.50
73121;DHT22;61307;49.628;-1.624;2023-09-07T01:25:51;22.80;73.60
73121;DHT22;61307;49.628;-1.624;2023-09-07T01:28:19;22.80;73.50
73121;DHT22;61307;49.628;-1.624;2023-09-07T01:30:47;22.80;73.60
73121;DHT22;61307;49.628;-1.624;2023-09-07T01:33:15;22.80;73.60
73121;DHT22;61307;49.628;-1.624;2023-09-07T01:35:42;22.80;73.60
73121;DHT22;61307;49.628;-1.624;2023-09-07T01:38:09;22.80;73.60
73121;DHT22;61307;49.628;-1.624;2023-09-07T01:40:38;22.80;73.60
73121;DHT22;61307;49.628;-1.624;2023-09-07T01:43:05;22.80;73.60
73121;DHT22;61307;49.628;-1.624;2023-09-07T01:49:18;22.80;73.60
73121;DHT22;61307;49.628;-1.624;2023-09-07T01:51:50;22.70;73.50
73121;DHT22;61307;49.628;-1.624;2023-09-07T01:54:18;22.70;73.50
73121;DHT22;61307;49.628;-1.624;2023-09-07T01:56:46;22.80;73.60
73121;DHT22;61307;49.628;-1.624;2023-09-07T01:59:14;22.80;73.70
73121;DHT22;61307;49.628;-1.624;2023-09-07T02:01:41;22.80;73.60
73121;DHT22;61307;49.628;-1.624;2023-09-07T02:04:09;22.80;73.60
73121;DHT22;61307;49.628;-1.624;2023-09-07T02:06:36;22.80;73.60
73121;DHT22;61307;49.628;-1.624;2023-09-07T02:09:04;22.80;73.60
73121;DHT22;61307;49.628;-1.624;2023-09-07T02:11:34;22.80;73.60
73121;DHT22;61307;49.628;-1.624;2023-09-07T02:14:03;22.80;74.40
73121;DHT22;61307;49.628;-1.624;2023-09-07T02:16:36;22.80;73.60
73121;DHT22;61307;49.628;-1.624;2023-09-07T02:19:05;22.80;73.60
73121;DHT22;61307;49.628;-1.624;2023-09-07T02:21:33;22.70;73.50
73121;DHT22;61307;49.628;-1.624;2023-09-07T02:24:00;22.80;73.60
73121;DHT22;61307;49.628;-1.624;2023-09-07T02:26:27;22.80;73.60
73121;DHT22;61307;49.628;-1.624;2023-09-07T02:28:55;22.70;73.50
73121;DHT22;61307;49.628;-1.624;2023-09-07T02:31:24;22.80;73.60
73121;DHT22;61307;49.628;-1.624;2023-09-07T02:33:52;22.80;73.70
73121;DHT22;61307;49.628;-1.624;2023-09-07T02:42:34;22.80;73.60
73121;DHT22;61307;49.628;-1.624;2023-09-07T02:45:02;22.70;73.50
73121;DHT22;61307;49.628;-1.624;2023-09-07T02:47:31;22.70;73.60
73121;DHT22;61307;49.628;-1.624;2023-09-07T02:49:59;22.70;73.60
73121;DHT22;61307;49.628;-1.624;2023-09-07T02:52:26;22.70;73.60
73121;DHT22;61307;49.628;-1.624;2023-09-07T02:54:54;22.70;73.50
73121;DHT22;61307;49.628;-1.624;2023-09-07T02:57:21;22.70;73.50
73121;DHT22;61307;49.628;-1.624;2023-09-07T02:59:49;22.70;73.50
73121;DHT22;61307;49.628;-1.624;2023-09-07T03:02:16;22.70;73.50
73121;DHT22;61307;49.628;-1.624;2023-09-07T03:04:45;22.70;73.50
73121;DHT22;61307;49.628;-1.624;2023-09-07T03:07:13;22.70;73.60
73121;DHT22;61307;49.628;-1.624;2023-09-07T03:09:40;22.60;73.40
73121;DHT22;61307;49.628;-1.624;2023-09-07T03:12:08;22.70;73.50
73121;DHT22;61307;49.628;-1.624;2023-09-07T03:14:35;22.70;74.30
73121;DHT22;61307;49.628;-1.624;2023-09-07T03:17:03;22.70;73.50
73121;DHT22;61307;49.628;-1.624;2023-09-07T03:19:30;22.70;73.50
73121;DHT22;61307;49.628;-1.624;2023-09-07T03:21:59;22.80;73.60
73121;DHT22;61307;49.628;-1.624;2023-09-07T03:24:27;22.70;73.50
73121;DHT22;61307;49.628;-1.624;2023-09-07T03:26:55;22.70;73.50
73121;DHT22;61307;49.628;-1.624;2023-09-07T03:29:37;22.60;73.40
73121;DHT22;61307;49.628;-1.624;2023-09-07T03:32:05;22.70;73.50
73121;DHT22;61307;49.628;-1.624;2023-09-07T03:34:34;22.60;73.50
73121;DHT22;61307;49.628;-1.624;2023-09-07T03:37:04;22.70;73.60
73121;DHT22;61307;49.628;-1.624;2023-09-07T03:39:32;22.70;73.60
73121;DHT22;61307;49.628;-1.624;2023-09-07T03:41:59;22.60;73.40
73121;DHT22;61307;49.628;-1.624;2023-09-07T03:44:27;22.70;73.50
73121;DHT22;61307;49.628;-1.624;2023-09-07T03:46:54;22.70;73.50
73121;DHT22;61307;49.628;-1.624;2023-09-07T03:49:22;22.70;73.50
73121;DHT22;61307;49.628;-1.624;2023-09-07T03:51:49;22.70;73.50
73121;DHT22;61307;49.628;-1.624;2023-09-07T03:54:18;22.60;73.40
73121;DHT22;61307;49.628;-1.624;2023-09-07T04:02:10;22.70;73.50
73121;DHT22;61307;49.628;-1.624;2023-09-07T04:04:38;22.70;73.50
73121;DHT22;61307;49.628;-1.624;2023-09-07T04:07:05;22.60;73.40
73121;DHT22;61307;49.628;-1.624;2023-09-07T04:09:38;22.70;73.50
73121;DHT22;61307;49.628;-1.624;2023-09-07T04:12:06;22.60;73.40
73121;DHT22;61307;49.628;-1.624;2023-09-07T04:14:33;22.60;73.40
73121;DHT22;61307;49.628;-1.624;2023-09-07T04:17:01;22.60;73.40
73121;DHT22;61307;49.628;-1.624;2023-09-07T04:19:28;22.60;73.40
73121;DHT22;61307;49.628;-1.624;2023-09-07T04:21:56;22.70;73.50
73121;DHT22;61307;49.628;-1.624;2023-09-07T04:24:24;22.60;73.40
73121;DHT22;61307;49.628;-1.624;2023-09-07T04:26:58;22.60;73.40
73121;DHT22;61307;49.628;-1.624;2023-09-07T04:29:25;22.60;73.40
73121;DHT22;61307;49.628;-1.624;2023-09-07T04:31:53;22.70;73.50
73121;DHT22;61307;49.628;-1.624;2023-09-07T04:34:21;22.60;73.40
73121;DHT22;61307;49.628;-1.624;2023-09-07T04:36:48;22.60;73.40
73121;DHT22;61307;49.628;-1.624;2023-09-07T04:39:16;22.60;73.30
73121;DHT22;61307;49.628;-1.624;2023-09-07T04:41:44;22.60;73.40
73121;DHT22;61307;49.628;-1.624;2023-09-07T04:44:12;22.60;73.40
73121;DHT22;61307;49.628;-1.624;2023-09-07T04:46:40;22.70;73.50
73121;DHT22;61307;49.628;-1.624;2023-09-07T04:49:07;22.70;73.50
73121;DHT22;61307;49.628;-1.624;2023-09-07T04:51:34;22.60;73.40
73121;DHT22;61307;49.628;-1.624;2023-09-07T04:54:02;22.60;73.40
73121;DHT22;61307;49.628;-1.624;2023-09-07T04:56:29;22.60;73.30
73121;DHT22;61307;49.628;-1.624;2023-09-07T04:58:56;22.60;73.40
73121;DHT22;61307;49.628;-1.624;2023-09-07T05:01:25;22.60;73.30
73121;DHT22;61307;49.628;-1.624;2023-09-07T05:03:52;22.60;73.40
73121;DHT22;61307;49.628;-1.624;2023-09-07T05:06:20;22.60;73.40
73121;DHT22;61307;49.628;-1.624;2023-09-07T05:08:48;22.60;73.30
73121;DHT22;61307;49.628;-1.624;2023-09-07T05:11:16;22.60;73.30
73121;DHT22;61307;49.628;-1.624;2023-09-07T05:13:44;22.60;73.40
73121;DHT22;61307;49.628;-1.624;2023-09-07T05:16:27;22.60;73.40
73121;DHT22;61307;49.628;-1.624;2023-09-07T05:19:22;22.60;73.40
73121;DHT22;61307;49.628;-1.624;2023-09-07T05:21:50;22.60;73.40
73121;DHT22;61307;49.628;-1.624;2023-09-07T05:24:17;22.60;73.40
73121;DHT22;61307;49.628;-1.624;2023-09-07T05:26:47;22.60;73.40
73121;DHT22;61307;49.628;-1.624;2023-09-07T05:29:15;22.60;73.40
73121;DHT22;61307;49.628;-1.624;2023-09-07T05:31:44;22.60;73.40
73121;DHT22;61307;49.628;-1.624;2023-09-07T05:34:11;22.50;73.20
73121;DHT22;61307;49.628;-1.624;2023-09-07T05:36:38;22.60;73.40
73121;DHT22;61307;49.628;-1.624;2023-09-07T05:39:06;22.60;73.40
73121;DHT22;61307;49.628;-1.624;2023-09-07T05:41:33;22.60;73.40
73121;DHT22;61307;49.628;-1.624;2023-09-07T05:44:03;22.60;73.40
73121;DHT22;61307;49.628;-1.624;2023-09-07T05:46:31;22.50;73.20
73121;DHT22;61307;49.628;-1.624;2023-09-07T05:49:03;22.60;73.40
73121;DHT22;61307;49.628;-1.624;2023-09-07T05:51:30;22.60;73.40
73121;DHT22;61307;49.628;-1.624;2023-09-07T05:53:58;22.60;73.40
73121;DHT22;61307;49.628;-1.624;2023-09-07T05:56:26;22.50;73.20
73121;DHT22;61307;49.628;-1.624;2023-09-07T05:58:53;22.50;73.20
73121;DHT22;61307;49.628;-1.624;2023-09-07T06:01:20;22.50;73.20
73121;DHT22;61307;49.628;-1.624;2023-09-07T06:03:51;22.60;73.40
73121;DHT22;61307;49.628;-1.624;2023-09-07T06:06:19;22.60;73.40
73121;DHT22;61307;49.628;-1.624;2023-09-07T06:12:35;22.50;73.30
73121;DHT22;61307;49.628;-1.624;2023-09-07T06:15:04;22.60;73.40
73121;DHT22;61307;49.628;-1.624;2023-09-07T06:17:32;22.50;73.20
73121;DHT22;61307;49.628;-1.624;2023-09-07T06:19:59;22.50;73.30
73121;DHT22;61307;49.628;-1.624;2023-09-07T06:22:28;22.50;73.30
73121;DHT22;61307;49.628;-1.624;2023-09-07T06:24:55;22.50;73.30
73121;DHT22;61307;49.628;-1.624;2023-09-07T06:27:22;22.50;73.20
73121;DHT22;61307;49.628;-1.624;2023-09-07T06:29:50;22.60;73.40
73121;DHT22;61307;49.628;-1.624;2023-09-07T06:32:18;22.50;73.30
73121;DHT22;61307;49.628;-1.624;2023-09-07T06:34:45;22.50;73.20
73121;DHT22;61307;49.628;-1.624;2023-09-07T06:37:13;22.50;73.20
73121;DHT22;61307;49.628;-1.624;2023-09-07T06:39:42;22.50;73.20
73121;DHT22;61307;49.628;-1.624;2023-09-07T06:42:24;22.50;73.20
73121;DHT22;61307;49.628;-1.624;2023-09-07T06:45:38;22.60;73.30
73121;DHT22;61307;49.628;-1.624;2023-09-07T06:48:05;22.60;73.20
73121;DHT22;61307;49.628;-1.624;2023-09-07T06:50:33;22.60;73.20
73121;DHT22;61307;49.628;-1.624;2023-09-07T06:53:10;22.60;73.20
73121;DHT22;61307;49.628;-1.624;2023-09-07T06:55:42;22.60;73.20
73121;DHT22;61307;49.628;-1.624;2023-09-07T06:58:10;22.70;73.40
73121;DHT22;61307;49.628;-1.624;2023-09-07T07:04:04;22.70;73.20
73121;DHT22;61307;49.628;-1.624;2023-09-07T07:06:44;22.70;73.40
73121;DHT22;61307;49.628;-1.624;2023-09-07T07:09:12;22.80;73.50
73121;DHT22;61307;49.628;-1.624;2023-09-07T07:11:44;22.80;73.40
73121;DHT22;61307;49.628;-1.624;2023-09-07T07:14:11;22.80;73.60
73121;DHT22;61307;49.628;-1.624;2023-09-07T07:16:39;22.80;73.70
73121;DHT22;61307;49.628;-1.624;2023-09-07T07:19:06;22.90;73.80
73121;DHT22;61307;49.628;-1.624;2023-09-07T07:21:34;22.90;73.80
73121;DHT22;61307;49.628;-1.624;2023-09-07T07:24:16;23.00;73.90
73121;DHT22;61307;49.628;-1.624;2023-09-07T07:26:45;23.00;73.90
73121;DHT22;61307;49.628;-1.624;2023-09-07T07:29:13;23.00;73.80
73121;DHT22;61307;49.628;-1.624;2023-09-07T07:32:01;23.10;73.80
73121;DHT22;61307;49.628;-1.624;2023-09-07T07:34:39;23.10;73.70
73121;DHT22;61307;49.628;-1.624;2023-09-07T07:37:10;23.20;73.70
73121;DHT22;61307;49.628;-1.624;2023-09-07T07:39:41;23.20;73.70
73121;DHT22;61307;49.628;-1.624;2023-09-07T07:42:10;23.30;73.80
73121;DHT22;61307;49.628;-1.624;2023-09-07T08:11:50;23.40;74.10
73121;DHT22;61307;49.628;-1.624;2023-09-07T08:14:45;23.50;74.20
73121;DHT22;61307;49.628;-1.624;2023-09-07T08:17:13;23.40;74.20
73121;DHT22;61307;49.628;-1.624;2023-09-07T08:26:10;23.50;74.30
73121;DHT22;61307;49.628;-1.624;2023-09-07T08:38:50;23.60;74.60
73121;DHT22;61307;49.628;-1.624;2023-09-07T08:41:20;23.60;74.50
73121;DHT22;61307;49.628;-1.624;2023-09-07T08:43:49;23.70;74.70
73121;DHT22;61307;49.628;-1.624;2023-09-07T08:46:25;23.80;74.80
73121;DHT22;61307;49.628;-1.624;2023-09-07T08:48:56;23.80;74.60
73121;DHT22;61307;49.628;-1.624;2023-09-07T08:55:13;23.80;74.70
73121;DHT22;61307;49.628;-1.624;2023-09-07T08:57:44;23.80;74.50
73121;DHT22;61307;49.628;-1.624;2023-09-07T09:00:15;23.80;74.60
73121;DHT22;61307;49.628;-1.624;2023-09-07T09:02:45;23.80;74.40
73121;DHT22;61307;49.628;-1.624;2023-09-07T09:05:35;23.90;74.40
73121;DHT22;61307;49.628;-1.624;2023-09-07T09:08:12;24.00;74.40
73121;DHT22;61307;49.628;-1.624;2023-09-07T09:10:58;24.00;74.30
73121;DHT22;61307;49.628;-1.624;2023-09-07T09:13:30;24.00;74.30
73121;DHT22;61307;49.628;-1.624;2023-09-07T09:16:46;24.00;74.30
73121;DHT22;61307;49.628;-1.624;2023-09-07T09:19:09;24.00;74.30
73121;DHT22;61307;49.628;-1.624;2023-09-07T09:21:36;24.00;74.20
73121;DHT22;61307;49.628;-1.624;2023-09-07T09:24:10;24.00;74.20
73121;DHT22;61307;49.628;-1.624;2023-09-07T09:29:58;24.00;74.30
73121;DHT22;61307;49.628;-1.624;2023-09-07T09:32:40;24.00;74.20
73121;DHT22;61307;49.628;-1.624;2023-09-07T09:35:31;24.10;74.50
73121;DHT22;61307;49.628;-1.624;2023-09-07T09:38:01;24.10;74.40
73121;DHT22;61307;49.628;-1.624;2023-09-07T09:40:33;24.00;74.30
73121;DHT22;61307;49.628;-1.624;2023-09-07T09:43:28;24.10;74.40
73121;DHT22;61307;49.628;-1.624;2023-09-07T09:45:57;24.00;74.30
73121;DHT22;61307;49.628;-1.624;2023-09-07T09:48:36;24.00;74.30
73121;DHT22;61307;49.628;-1.624;2023-09-07T09:51:24;24.00;74.20
73121;DHT22;61307;49.628;-1.624;2023-09-07T09:53:54;24.10;74.20
73121;DHT22;61307;49.628;-1.624;2023-09-07T09:56:44;24.00;74.00
73121;DHT22;61307;49.628;-1.624;2023-09-07T09:59:13;24.00;74.00
73121;DHT22;61307;49.628;-1.624;2023-09-07T10:01:48;24.00;74.20
73121;DHT22;61307;49.628;-1.624;2023-09-07T10:04:17;24.00;74.40
73121;DHT22;61307;49.628;-1.624;2023-09-07T10:07:04;24.00;74.70
73121;DHT22;61307;49.628;-1.624;2023-09-07T10:09:33;24.00;74.90
73121;DHT22;61307;49.628;-1.624;2023-09-07T10:15:43;23.90;75.20
73121;DHT22;61307;49.628;-1.624;2023-09-07T10:18:14;24.00;75.50
73121;DHT22;61307;49.628;-1.624;2023-09-07T10:20:50;23.90;75.40
73121;DHT22;61307;49.628;-1.624;2023-09-07T10:23:34;23.80;75.50
73121;DHT22;61307;49.628;-1.624;2023-09-07T10:26:20;23.90;75.60
73121;DHT22;61307;49.628;-1.624;2023-09-07T10:33:03;23.90;75.70
73121;DHT22;61307;49.628;-1.624;2023-09-07T10:42:26;23.90;75.70
73121;DHT22;61307;49.628;-1.624;2023-09-07T10:45:25;24.00;75.80
73121;DHT22;61307;49.628;-1.624;2023-09-07T10:47:53;24.00;75.80
73121;DHT22;61307;49.628;-1.624;2023-09-07T10:50:21;24.00;75.80
73121;DHT22;61307;49.628;-1.624;2023-09-07T10:52:48;24.00;75.80
73121;DHT22;61307;49.628;-1.624;2023-09-07T10:55:36;24.00;75.80
73121;DHT22;61307;49.628;-1.624;2023-09-07T10:58:10;24.00;75.80
73121;DHT22;61307;49.628;-1.624;2023-09-07T11:00:53;24.10;75.90
73121;DHT22;61307;49.628;-1.624;2023-09-07T11:04:11;24.00;75.80
73121;DHT22;61307;49.628;-1.624;2023-09-07T11:07:17;24.10;75.90
73121;DHT22;61307;49.628;-1.624;2023-09-07T11:10:00;24.10;75.80
73121;DHT22;61307;49.628;-1.624;2023-09-07T11:13:01;24.10;75.80
73121;DHT22;61307;49.628;-1.624;2023-09-07T11:22:14;24.20;75.60
73121;DHT22;61307;49.628;-1.624;2023-09-07T11:24:41;24.20;75.20
73121;DHT22;61307;49.628;-1.624;2023-09-07T11:27:23;24.10;74.80
73121;DHT22;61307;49.628;-1.624;2023-09-07T11:29:52;24.10;74.80
73121;DHT22;61307;49.628;-1.624;2023-09-07T11:32:23;24.20;74.80
73121;DHT22;61307;49.628;-1.624;2023-09-07T11:34:52;24.20;74.60
73121;DHT22;61307;49.628;-1.624;2023-09-07T11:37:23;24.20;74.40
73121;DHT22;61307;49.628;-1.624;2023-09-07T11:39:52;24.20;74.40
73121;DHT22;61307;49.628;-1.624;2023-09-07T11:42:20;24.20;74.30
73121;DHT22;61307;49.628;-1.624;2023-09-07T11:45:01;24.20;74.10
73121;DHT22;61307;49.628;-1.624;2023-09-07T11:47:29;24.30;74.10
73121;DHT22;61307;49.628;-1.624;2023-09-07T11:49:57;24.30;73.80
73121;DHT22;61307;49.628;-1.624;2023-09-07T11:52:40;24.30;73.60
73121;DHT22;61307;49.628;-1.624;2023-09-07T11:55:08;24.30;73.40
73121;DHT22;61307;49.628;-1.624;2023-09-07T11:57:36;24.30;73.30
73121;DHT22;61307;49.628;-1.624;2023-09-07T12:00:05;24.20;73.20
73121;DHT22;61307;49.628;-1.624;2023-09-07T12:05:59;24.20;72.80
73121;DHT22;61307;49.628;-1.624;2023-09-07T12:08:36;24.20;72.90
73121;DHT22;61307;49.628;-1.624;2023-09-07T12:11:04;24.30;72.90
73121;DHT22;61307;49.628;-1.624;2023-09-07T12:13:31;24.40;72.70
73121;DHT22;61307;49.628;-1.624;2023-09-07T12:16:01;24.30;73.30
73121;DHT22;61307;49.628;-1.624;2023-09-07T12:18:32;24.40;73.30
73121;DHT22;61307;49.628;-1.624;2023-09-07T12:21:01;24.40;72.50
73121;DHT22;61307;49.628;-1.624;2023-09-07T12:23:35;24.40;72.60
73121;DHT22;61307;49.628;-1.624;2023-09-07T12:26:03;24.40;72.70
73121;DHT22;61307;49.628;-1.624;2023-09-07T12:28:43;24.40;72.80
73121;DHT22;61307;49.628;-1.624;2023-09-07T12:47:34;24.70;72.70
73121;DHT22;61307;49.628;-1.624;2023-09-07T12:56:52;24.70;72.40
73121;DHT22;61307;49.628;-1.624;2023-09-07T12:59:26;24.70;72.20
73121;DHT22;61307;49.628;-1.624;2023-09-07T13:02:15;24.80;72.10
73121;DHT22;61307;49.628;-1.624;2023-09-07T13:04:54;24.80;71.20
73121;DHT22;61307;49.628;-1.624;2023-09-07T13:07:23;24.80;71.00
73121;DHT22;61307;49.628;-1.624;2023-09-07T13:19:40;24.70;70.40
73121;DHT22;61307;49.628;-1.624;2023-09-07T13:22:12;24.80;71.00
73121;DHT22;61307;49.628;-1.624;2023-09-07T13:27:46;24.80;70.90
73121;DHT22;61307;49.628;-1.624;2023-09-07T13:30:14;24.80;71.80
73121;DHT22;61307;49.628;-1.624;2023-09-07T13:32:42;24.80;70.90
73121;DHT22;61307;49.628;-1.624;2023-09-07T13:35:23;24.80;70.90
73121;DHT22;61307;49.628;-1.624;2023-09-07T13:44:55;24.80;71.00
73121;DHT22;61307;49.628;-1.624;2023-09-07T13:48:24;24.90;71.10
73121;DHT22;61307;49.628;-1.624;2023-09-07T13:51:09;24.90;71.00
73121;DHT22;61307;49.628;-1.624;2023-09-07T13:53:47;24.90;70.70
73121;DHT22;61307;49.628;-1.624;2023-09-07T13:56:26;24.90;70.60
73121;DHT22;61307;49.628;-1.624;2023-09-07T13:58:57;24.90;70.30
73121;DHT22;61307;49.628;-1.624;2023-09-07T14:21:48;24.80;71.10
73121;DHT22;61307;49.628;-1.624;2023-09-07T14:24:35;24.80;71.10
73121;DHT22;61307;49.628;-1.624;2023-09-07T14:27:32;24.80;71.10
73121;DHT22;61307;49.628;-1.624;2023-09-07T14:30:02;24.80;71.00
73121;DHT22;61307;49.628;-1.624;2023-09-07T14:32:31;24.80;71.00
73121;DHT22;61307;49.628;-1.624;2023-09-07T14:35:16;24.70;70.90
73121;DHT22;61307;49.628;-1.624;2023-09-07T14:37:49;24.80;71.10
73121;DHT22;61307;49.628;-1.624;2023-09-07T14:40:21;24.70;71.00
73121;DHT22;61307;49.628;-1.624;2023-09-07T14:43:05;24.70;71.40
73121;DHT22;61307;49.628;-1.624;2023-09-07T14:49:15;24.60;71.40
73121;DHT22;61307;49.628;-1.624;2023-09-07T14:52:23;24.60;71.50
73121;DHT22;61307;49.628;-1.624;2023-09-07T15:02:15;24.60;71.80
73121;DHT22;61307;49.628;-1.624;2023-09-07T15:11:05;24.60;71.90
73121;DHT22;61307;49.628;-1.624;2023-09-07T15:47:16;24.50;72.20
73121;DHT22;61307;49.628;-1.624;2023-09-07T15:49:47;24.40;72.10
73121;DHT22;61307;49.628;-1.624;2023-09-07T15:56:01;24.40;72.60
73121;DHT22;61307;49.628;-1.624;2023-09-07T16:05:22;24.40;73.20
73121;DHT22;61307;49.628;-1.624;2023-09-07T16:12:05;24.50;73.20
73121;DHT22;61307;49.628;-1.624;2023-09-07T16:21:57;24.60;73.10
73121;DHT22;61307;49.628;-1.624;2023-09-07T17:15:10;24.80;72.60
73121;DHT22;61307;49.628;-1.624;2023-09-07T17:18:02;24.70;72.60
73121;DHT22;61307;49.628;-1.624;2023-09-07T17:20:35;24.70;72.70
73121;DHT22;61307;49.628;-1.624;2023-09-07T17:23:26;24.70;72.70
73121;DHT22;61307;49.628;-1.624;2023-09-07T17:26:00;24.70;72.70
73121;DHT22;61307;49.628;-1.624;2023-09-07T17:28:28;24.70;72.70
73121;DHT22;61307;49.628;-1.624;2023-09-07T17:30:57;24.70;72.70
73121;DHT22;61307;49.628;-1.624;2023-09-07T17:36:15;24.70;72.80
73121;DHT22;61307;49.628;-1.624;2023-09-07T17:38:44;24.60;72.70
73121;DHT22;61307;49.628;-1.624;2023-09-07T17:41:26;24.60;72.70
73121;DHT22;61307;49.628;-1.624;2023-09-07T17:44:52;24.60;72.70
73121;DHT22;61307;49.628;-1.624;2023-09-07T17:47:28;24.60;72.80
73121;DHT22;61307;49.628;-1.624;2023-09-07T17:49:58;24.60;72.80
73121;DHT22;61307;49.628;-1.624;2023-09-07T17:52:38;24.60;72.70
73121;DHT22;61307;49.628;-1.624;2023-09-07T17:55:07;24.60;72.70
73121;DHT22;61307;49.628;-1.624;2023-09-07T17:57:37;24.50;72.60
73121;DHT22;61307;49.628;-1.624;2023-09-07T18:03:16;24.50;72.70
73121;DHT22;61307;49.628;-1.624;2023-09-07T18:05:48;24.40;72.70
73121;DHT22;61307;49.628;-1.624;2023-09-07T18:08:15;24.40;72.70
73121;DHT22;61307;49.628;-1.624;2023-09-07T18:10:43;24.40;72.80
73121;DHT22;61307;49.628;-1.624;2023-09-07T18:13:10;24.40;72.80
73121;DHT22;61307;49.628;-1.624;2023-09-07T18:15:37;24.30;72.70
73121;DHT22;61307;49.628;-1.624;2023-09-07T18:18:05;24.30;72.80
73121;DHT22;61307;49.628;-1.624;2023-09-07T18:20:34;24.30;72.80
73121;DHT22;61307;49.628;-1.624;2023-09-07T18:23:02;24.30;72.80
73121;DHT22;61307;49.628;-1.624;2023-09-07T18:25:30;24.30;72.80
73121;DHT22;61307;49.628;-1.624;2023-09-07T18:28:01;24.20;72.80
73121;DHT22;61307;49.628;-1.624;2023-09-07T18:30:28;24.20;72.80
73121;DHT22;61307;49.628;-1.624;2023-09-07T18:32:56;24.20;72.80
73121;DHT22;61307;49.628;-1.624;2023-09-07T18:35:25;24.20;72.90
73121;DHT22;61307;49.628;-1.624;2023-09-07T18:37:54;24.10;72.90
73121;DHT22;61307;49.628;-1.624;2023-09-07T18:40:22;24.10;72.90
73121;DHT22;61307;49.628;-1.624;2023-09-07T18:42:50;24.20;73.80
73121;DHT22;61307;49.628;-1.624;2023-09-07T18:45:19;24.10;73.00
73121;DHT22;61307;49.628;-1.624;2023-09-07T18:47:46;24.10;73.00
73121;DHT22;61307;49.628;-1.624;2023-09-07T18:50:14;24.10;73.00
73121;DHT22;61307;49.628;-1.624;2023-09-07T18:52:43;24.20;73.20
73121;DHT22;61307;49.628;-1.624;2023-09-07T18:55:12;24.10;73.10
73121;DHT22;61307;49.628;-1.624;2023-09-07T18:57:40;24.10;73.10
73121;DHT22;61307;49.628;-1.624;2023-09-07T19:00:08;24.00;73.00
73121;DHT22;61307;49.628;-1.624;2023-09-07T19:02:35;24.10;73.10
73121;DHT22;61307;49.628;-1.624;2023-09-07T19:05:03;24.00;73.10
73121;DHT22;61307;49.628;-1.624;2023-09-07T19:07:31;24.10;73.20
73121;DHT22;61307;49.628;-1.624;2023-09-07T19:10:00;24.00;73.10
73121;DHT22;61307;49.628;-1.624;2023-09-07T19:12:30;24.00;73.20
73121;DHT22;61307;49.628;-1.624;2023-09-07T19:14:59;24.00;73.20
73121;DHT22;61307;49.628;-1.624;2023-09-07T19:17:27;24.00;73.20
73121;DHT22;61307;49.628;-1.624;2023-09-07T19:19:54;24.00;73.20
73121;DHT22;61307;49.628;-1.624;2023-09-07T19:22:23;24.00;73.20
73121;DHT22;61307;49.628;-1.624;2023-09-07T19:24:50;24.00;73.30
73121;DHT22;61307;49.628;-1.624;2023-09-07T19:27:18;24.00;73.30
73121;DHT22;61307;49.628;-1.624;2023-09-07T19:29:47;24.00;73.30
73121;DHT22;61307;49.628;-1.624;2023-09-07T19:32:14;23.90;73.20
73121;DHT22;61307;49.628;-1.624;2023-09-07T19:34:44;24.00;73.30
73121;DHT22;61307;49.628;-1.624;2023-09-07T19:37:14;24.00;73.30
73121;DHT22;61307;49.628;-1.624;2023-09-07T19:40:00;23.90;73.20
73121;DHT22;61307;49.628;-1.624;2023-09-07T19:42:29;23.90;73.20
73121;DHT22;61307;49.628;-1.624;2023-09-07T19:45:00;23.90;73.20
73121;DHT22;61307;49.628;-1.624;2023-09-07T19:47:30;23.80;73.10
73121;DHT22;61307;49.628;-1.624;2023-09-07T19:49:58;23.90;73.20
73121;DHT22;61307;49.628;-1.624;2023-09-07T19:52:26;23.80;73.20
73121;DHT22;61307;49.628;-1.624;2023-09-07T19:54:53;23.80;73.20
73121;DHT22;61307;49.628;-1.624;2023-09-07T19:57:21;23.80;73.20
73121;DHT22;61307;49.628;-1.624;2023-09-07T20:00:01;23.90;73.30
73121;DHT22;61307;49.628;-1.624;2023-09-07T20:02:29;23.90;73.30
73121;DHT22;61307;49.628;-1.624;2023-09-07T20:04:57;23.80;73.20
73121;DHT22;61307;49.628;-1.624;2023-09-07T20:07:25;23.80;73.20
73121;DHT22;61307;49.628;-1.624;2023-09-07T20:09:53;23.80;73.20
73121;DHT22;61307;49.628;-1.624;2023-09-07T20:12:22;23.90;73.30
73121;DHT22;61307;49.628;-1.624;2023-09-07T20:14:50;23.80;73.20
73121;DHT22;61307;49.628;-1.624;2023-09-07T20:17:19;23.90;73.30
73121;DHT22;61307;49.628;-1.624;2023-09-07T20:19:47;23.80;73.10
73121;DHT22;61307;49.628;-1.624;2023-09-07T20:22:15;23.70;73.00
73121;DHT22;61307;49.628;-1.624;2023-09-07T20:24:42;23.80;73.10
73121;DHT22;61307;49.628;-1.624;2023-09-07T20:27:10;23.80;73.10
73121;DHT22;61307;49.628;-1.624;2023-09-07T20:29:40;23.70;73.00
73121;DHT22;61307;49.628;-1.624;2023-09-07T20:32:07;23.80;73.10
73121;DHT22;61307;49.628;-1.624;2023-09-07T20:34:39;23.70;73.00
73121;DHT22;61307;49.628;-1.624;2023-09-07T20:37:20;23.80;73.00
73121;DHT22;61307;49.628;-1.624;2023-09-07T20:39:48;23.80;73.00